createdAt,value
2018-05-08T00:00:16.912Z,21.50
2018-05-08T00:02:46.507Z,21.30
2018-05-08T00:05:16.774Z,21.20
2018-05-08T00:07:46.184Z,21.20
2018-05-08T00:10:16.769Z,21.20
2018-05-08T00:12:46.241Z,21.10
2018-05-08T00:15:15.865Z,21.10
2018-05-08T00:17:45.450Z,21.20
2018-05-08T00:20:15.113Z,21.00
2018-05-08T00:22:45.619Z,21.00
2018-05-08T00:25:15.108Z,21.00
2018-05-08T00:27:44.668Z,21.20
2018-05-08T00:30:14.175Z,21.20
2018-05-08T00:32:44.575Z,21.10
2018-05-08T00:35:14.194Z,21.10
2018-05-08T00:37:46.116Z,20.90
2018-05-08T00:40:15.544Z,20.80
2018-05-08T00:42:45.085Z,20.60
2018-05-08T00:45:16.284Z,20.30
2018-05-08T00:47:45.595Z,20.30
2018-05-08T00:50:15.152Z,20.40
2018-05-08T00:52:44.636Z,20.50
2018-05-08T00:55:13.997Z,20.60
2018-05-08T00:57:43.455Z,20.60
2018-05-08T01:00:12.982Z,20.60
2018-05-08T01:02:43.361Z,20.60
2018-05-08T01:05:12.813Z,20.70
2018-05-08T01:07:42.432Z,20.70
2018-05-08T01:10:12.211Z,20.60
2018-05-08T01:12:44.579Z,20.40
2018-05-08T01:15:14.021Z,20.40
2018-05-08T01:17:43.746Z,20.30
2018-05-08T01:20:13.520Z,20.30
2018-05-08T01:22:43.064Z,20.30
2018-05-08T01:25:12.355Z,20.30
2018-05-08T01:27:41.793Z,20.30
2018-05-08T01:30:11.195Z,20.30
2018-05-08T01:32:40.501Z,20.30
2018-05-08T01:35:09.977Z,20.30
2018-05-08T01:37:39.294Z,20.20
2018-05-08T01:40:09.072Z,20.10
2018-05-08T01:42:38.544Z,20.10
2018-05-08T01:45:09.179Z,20.10
2018-05-08T01:47:39.632Z,20.00
2018-05-08T01:50:08.975Z,20.00
2018-05-08T01:52:38.557Z,20.00
2018-05-08T01:55:09.081Z,19.90
2018-05-08T01:57:38.539Z,19.80
2018-05-08T02:00:09.074Z,19.90
2018-05-08T02:02:38.668Z,19.80
2018-05-08T02:05:08.405Z,19.80
2018-05-08T02:07:37.966Z,19.80
2018-05-08T02:10:08.538Z,19.80
2018-05-08T02:12:37.990Z,19.80
2018-05-08T02:15:07.216Z,19.70
2018-05-08T02:17:36.661Z,19.60
2018-05-08T02:20:06.291Z,19.60
2018-05-08T02:22:37.056Z,19.60
2018-05-08T02:25:07.310Z,19.50
2018-05-08T02:27:37.976Z,19.40
2018-05-08T02:30:07.895Z,19.40
2018-05-08T02:32:37.527Z,19.30
2018-05-08T02:35:06.856Z,19.30
2018-05-08T02:37:37.408Z,19.20
2018-05-08T02:40:06.916Z,19.20
2018-05-08T02:42:36.716Z,19.20
2018-05-08T02:45:07.817Z,19.20
2018-05-08T02:47:37.028Z,19.10
2018-05-08T02:50:08.841Z,19.10
2018-05-08T02:52:38.989Z,19.00
2018-05-08T02:55:08.526Z,19.00
2018-05-08T02:57:38.082Z,18.90
2018-05-08T03:00:07.760Z,18.90
2018-05-08T03:02:38.177Z,18.90
2018-05-08T03:05:07.785Z,18.80
2018-05-08T03:07:38.414Z,18.80
2018-05-08T03:10:07.945Z,18.80
2018-05-08T03:12:38.249Z,18.70
2018-05-08T03:15:07.862Z,18.60
2018-05-08T03:17:37.542Z,18.60
2018-05-08T03:20:08.063Z,18.50
2018-05-08T03:22:40.649Z,18.40
2018-05-08T03:25:10.906Z,18.40
2018-05-08T03:27:40.564Z,18.40
2018-05-08T03:30:10.080Z,18.30
2018-05-08T03:32:39.470Z,18.20
2018-05-08T03:35:09.298Z,18.20
2018-05-08T03:37:39.055Z,18.10
2018-05-08T03:40:08.557Z,18.10
2018-05-08T03:42:37.957Z,18.00
2018-05-08T03:45:08.522Z,17.90
2018-05-08T03:47:39.762Z,17.90
2018-05-08T03:50:09.854Z,17.80
2018-05-08T03:52:39.110Z,17.70
2018-05-08T03:55:09.292Z,17.70
2018-05-08T03:57:38.753Z,17.60
2018-05-08T04:00:09.773Z,17.50
2018-05-08T04:02:51.025Z,17.50
2018-05-08T04:05:32.008Z,17.50
2018-05-08T04:08:13.359Z,17.40
2018-05-08T04:10:42.910Z,17.40
2018-05-08T04:13:12.845Z,17.30
2018-05-08T04:15:44.033Z,17.20
2018-05-08T04:18:14.897Z,17.10
2018-05-08T04:20:45.878Z,17.10
2018-05-08T04:23:15.483Z,17.10
2018-05-08T04:25:45.110Z,17.00
2018-05-08T04:28:15.313Z,17.00
2018-05-08T04:30:45.095Z,16.90
2018-05-08T04:33:14.781Z,16.80
2018-05-08T04:35:45.034Z,16.80
2018-05-08T04:38:16.362Z,16.70
2018-05-08T04:40:45.982Z,16.70
2018-05-08T04:43:15.635Z,16.70
2018-05-08T04:45:44.988Z,16.70
2018-05-08T04:48:14.496Z,16.70
2018-05-08T04:50:45.341Z,16.60
2018-05-08T04:53:15.569Z,16.50
2018-05-08T04:55:45.037Z,16.50
2018-05-08T04:58:14.859Z,16.50
2018-05-08T05:00:44.601Z,16.50
2018-05-08T05:03:13.917Z,16.50
2018-05-08T05:05:43.516Z,16.40
2018-05-08T05:08:14.898Z,16.40
2018-05-08T05:10:46.202Z,16.40
2018-05-08T05:13:16.837Z,16.40
2018-05-08T05:15:48.312Z,16.40
2018-05-08T05:18:19.023Z,16.30
2018-05-08T05:20:49.569Z,16.30
2018-05-08T05:23:20.546Z,16.30
2018-05-08T05:25:50.151Z,16.30
2018-05-08T05:28:19.621Z,16.20
2018-05-08T05:30:49.265Z,16.20
2018-05-08T05:33:18.681Z,16.20
2018-05-08T05:35:48.592Z,16.10
2018-05-08T05:38:19.104Z,16.10
2018-05-08T05:40:48.517Z,16.10
2018-05-08T05:43:17.756Z,16.00
2018-05-08T05:45:48.109Z,16.00
2018-05-08T05:48:19.173Z,16.00
2018-05-08T05:50:49.545Z,16.00
2018-05-08T05:53:19.153Z,15.90
2018-05-08T05:55:49.597Z,15.90
2018-05-08T05:58:19.152Z,15.90
2018-05-08T06:00:48.937Z,15.90
2018-05-08T06:03:18.524Z,15.90
2018-05-08T06:05:48.125Z,15.90
2018-05-08T06:08:18.506Z,15.80
2018-05-08T06:10:47.867Z,15.80
2018-05-08T06:13:18.405Z,15.80
2018-05-08T06:15:47.974Z,15.70
2018-05-08T06:18:17.344Z,15.70
2018-05-08T06:20:46.973Z,15.70
2018-05-08T06:23:16.556Z,15.70
2018-05-08T06:25:46.159Z,15.70
2018-05-08T06:28:15.543Z,15.70
2018-05-08T06:30:45.010Z,15.60
2018-05-08T06:33:16.314Z,15.60
2018-05-08T06:35:45.800Z,15.60
2018-05-08T06:38:15.368Z,15.60
2018-05-08T06:40:44.982Z,15.60
2018-05-08T06:43:14.409Z,15.60
2018-05-08T06:45:43.677Z,15.60
2018-05-08T06:48:12.969Z,15.60
2018-05-08T06:50:42.664Z,15.50
2018-05-08T06:53:13.848Z,15.50
2018-05-08T06:55:43.298Z,15.50
2018-05-08T06:58:13.878Z,15.50
2018-05-08T07:00:43.068Z,15.50
2018-05-08T07:03:12.427Z,15.40
2018-05-08T07:05:42.589Z,15.50
2018-05-08T07:08:12.215Z,15.40
2018-05-08T07:10:41.445Z,15.40
2018-05-08T07:13:10.845Z,15.40
2018-05-08T07:15:40.619Z,15.40
2018-05-08T07:18:09.962Z,15.40
2018-05-08T07:20:39.381Z,15.50
2018-05-08T07:23:09.064Z,15.40
2018-05-08T07:25:38.805Z,15.40
2018-05-08T07:28:08.549Z,15.30
2018-05-08T07:30:38.129Z,15.30
2018-05-08T07:33:08.699Z,15.30
2018-05-08T07:35:38.488Z,15.30
2018-05-08T07:38:09.121Z,15.30
2018-05-08T07:40:38.671Z,15.30
2018-05-08T07:43:08.574Z,15.30
2018-05-08T07:45:38.422Z,15.20
2018-05-08T07:48:08.234Z,15.20
2018-05-08T07:50:37.971Z,15.20
2018-05-08T07:53:07.973Z,15.20
2018-05-08T07:55:37.964Z,15.20
2018-05-08T07:58:07.395Z,15.10
2018-05-08T08:00:37.212Z,15.10
2018-05-08T08:03:06.448Z,15.10
2018-05-08T08:05:36.018Z,15.10
2018-05-08T08:08:05.705Z,15.00
2018-05-08T08:10:35.255Z,15.00
2018-05-08T08:13:04.766Z,15.00
2018-05-08T08:15:36.390Z,15.00
2018-05-08T08:18:05.960Z,15.00
2018-05-08T08:20:35.472Z,15.00
2018-05-08T08:23:04.643Z,14.90
2018-05-08T08:25:33.953Z,14.90
2018-05-08T08:28:03.472Z,14.90
2018-05-08T08:30:33.025Z,14.90
2018-05-08T08:33:03.316Z,14.80
2018-05-08T08:35:34.241Z,14.80
2018-05-08T08:38:03.809Z,14.80
2018-05-08T08:40:34.202Z,14.80
2018-05-08T08:43:04.528Z,14.80
2018-05-08T08:45:34.152Z,14.80
2018-05-08T08:48:04.302Z,14.70
2018-05-08T08:50:34.104Z,14.70
2018-05-08T08:53:03.420Z,14.70
2018-05-08T08:55:33.240Z,14.60
2018-05-08T08:58:02.702Z,14.60
2018-05-08T09:00:32.327Z,14.60
2018-05-08T09:03:01.702Z,14.60
2018-05-08T09:05:31.147Z,14.50
2018-05-08T09:08:00.490Z,14.50
2018-05-08T09:10:30.212Z,14.50
2018-05-08T09:12:59.828Z,14.50
2018-05-08T09:15:41.904Z,14.50
2018-05-08T09:18:11.511Z,14.50
2018-05-08T09:20:41.344Z,14.50
2018-05-08T09:23:11.735Z,14.40
2018-05-08T09:25:41.108Z,14.30
2018-05-08T09:28:10.525Z,14.40
2018-05-08T09:30:40.020Z,14.30
2018-05-08T09:33:09.269Z,14.30
2018-05-08T09:35:40.568Z,14.30
2018-05-08T09:38:10.118Z,14.20
2018-05-08T09:40:39.622Z,14.30
2018-05-08T09:43:10.335Z,14.20
2018-05-08T09:45:39.871Z,14.20
2018-05-08T09:48:09.509Z,14.20
2018-05-08T09:50:39.504Z,14.20
2018-05-08T09:53:09.123Z,14.20
2018-05-08T09:55:38.443Z,14.20
2018-05-08T09:58:07.868Z,14.10
2018-05-08T10:00:37.248Z,14.10
2018-05-08T10:03:07.392Z,14.10
2018-05-08T10:05:36.568Z,14.10
2018-05-08T10:08:05.994Z,14.10
2018-05-08T10:10:35.357Z,14.10
2018-05-08T10:13:05.023Z,14.10
2018-05-08T10:15:34.259Z,14.10
2018-05-08T10:18:06.019Z,14.10
2018-05-08T10:20:35.351Z,14.10
2018-05-08T10:23:05.368Z,14.00
2018-05-08T10:25:35.745Z,13.90
2018-05-08T10:28:05.239Z,13.90
2018-05-08T10:30:34.383Z,13.90
2018-05-08T10:33:04.118Z,13.90
2018-05-08T10:35:34.300Z,13.90
2018-05-08T10:38:05.078Z,13.90
2018-05-08T10:40:35.602Z,13.90
2018-05-08T10:43:05.244Z,13.80
2018-05-08T10:48:00.636Z,13.90
2018-05-08T10:50:31.486Z,13.90
2018-05-08T10:53:00.878Z,13.80
2018-05-08T10:55:31.529Z,13.80
2018-05-08T10:58:01.159Z,13.80
2018-05-08T11:00:31.415Z,13.70
2018-05-08T11:03:00.692Z,13.70
2018-05-08T11:05:30.869Z,13.70
2018-05-08T11:08:00.779Z,13.70
2018-05-08T11:10:32.127Z,13.70
2018-05-08T11:13:03.095Z,13.70
2018-05-08T11:15:33.029Z,13.60
2018-05-08T11:18:03.448Z,13.60
2018-05-08T11:20:33.169Z,13.60
2018-05-08T11:23:03.473Z,13.60
2018-05-08T11:25:32.860Z,13.50
2018-05-08T11:28:02.397Z,13.50
2018-05-08T11:30:31.881Z,13.50
2018-05-08T11:33:02.897Z,13.50
2018-05-08T11:35:32.280Z,13.50
2018-05-08T11:38:01.723Z,13.50
2018-05-08T11:40:31.475Z,13.40
2018-05-08T11:43:01.035Z,13.40
2018-05-08T11:45:31.514Z,13.40
2018-05-08T11:48:01.081Z,13.40
2018-05-08T11:50:30.720Z,13.40
2018-05-08T11:53:00.062Z,13.40
2018-05-08T11:55:29.933Z,13.40
2018-05-08T11:57:59.716Z,13.40
2018-05-08T12:00:29.103Z,13.40
2018-05-08T12:02:58.491Z,13.40
2018-05-08T12:05:27.929Z,13.40
2018-05-08T12:07:57.373Z,13.30
2018-05-08T12:10:26.908Z,13.30
2018-05-08T12:12:56.252Z,13.30
2018-05-08T12:15:25.973Z,13.30
2018-05-08T12:17:55.654Z,13.30
2018-05-08T12:20:25.139Z,13.20
2018-05-08T12:22:54.754Z,13.30
2018-05-08T12:25:24.342Z,13.30
2018-05-08T12:27:54.776Z,13.30
2018-05-08T12:30:24.404Z,13.20
2018-05-08T12:32:53.628Z,13.20
2018-05-08T12:35:23.964Z,13.20
2018-05-08T12:37:53.797Z,13.20
2018-05-08T12:40:23.014Z,13.20
2018-05-08T12:42:52.551Z,13.20
2018-05-08T12:45:22.234Z,13.10
2018-05-08T12:47:51.748Z,13.20
2018-05-08T12:50:22.408Z,13.20
2018-05-08T12:52:52.282Z,13.20
2018-05-08T12:55:22.412Z,13.10
2018-05-08T12:57:52.124Z,13.00
2018-05-08T13:00:21.737Z,13.00
2018-05-08T13:02:51.087Z,13.00
2018-05-08T13:05:21.482Z,13.00
2018-05-08T13:07:51.116Z,13.00
2018-05-08T13:10:20.367Z,13.10
2018-05-08T13:12:50.041Z,13.10
2018-05-08T13:15:20.528Z,13.10
2018-05-08T13:17:51.006Z,13.10
2018-05-08T13:20:21.439Z,13.20
2018-05-08T13:22:50.924Z,13.20
2018-05-08T13:25:20.425Z,13.20
2018-05-08T13:27:50.100Z,13.20
2018-05-08T13:30:19.659Z,13.30
2018-05-08T13:32:49.771Z,13.30
2018-05-08T13:35:18.980Z,13.30
2018-05-08T13:37:49.856Z,13.30
2018-05-08T13:40:19.188Z,13.30
2018-05-08T13:42:48.641Z,13.30
2018-05-08T13:45:18.028Z,13.40
2018-05-08T13:47:48.908Z,13.40
2018-05-08T13:50:19.058Z,13.70
2018-05-08T13:52:48.507Z,13.60
2018-05-08T13:55:18.035Z,13.80
2018-05-08T13:57:47.843Z,13.90
2018-05-08T14:00:17.345Z,13.90
2018-05-08T14:02:48.164Z,14.00
2018-05-08T14:05:16.996Z,14.00
2018-05-08T14:07:46.396Z,14.10
2018-05-08T14:10:16.861Z,14.10
2018-05-08T14:12:46.297Z,14.10
2018-05-08T14:15:15.835Z,14.20
2018-05-08T14:17:45.412Z,14.30
2018-05-08T14:20:14.969Z,14.40
2018-05-08T14:22:44.608Z,14.60
2018-05-08T14:25:14.289Z,14.70
2018-05-08T14:27:44.033Z,14.80
2018-05-08T14:30:13.582Z,14.80
2018-05-08T14:32:43.271Z,14.90
2018-05-08T14:35:12.872Z,15.00
2018-05-08T14:37:43.421Z,15.20
2018-05-08T14:40:12.964Z,15.30
2018-05-08T14:42:42.808Z,15.40
2018-05-08T14:45:12.798Z,15.50
2018-05-08T14:47:42.275Z,15.60
2018-05-08T14:50:11.606Z,15.80
2018-05-08T14:52:41.855Z,15.90
2018-05-08T14:55:11.326Z,16.00
2018-05-08T14:57:40.340Z,16.20
2018-05-08T15:00:09.982Z,16.40
2018-05-08T15:02:39.376Z,16.60
2018-05-08T15:05:08.758Z,16.70
2018-05-08T15:07:38.340Z,16.70
2018-05-08T15:10:08.022Z,16.90
2018-05-08T15:12:37.768Z,17.00
2018-05-08T15:15:07.022Z,17.20
2018-05-08T15:17:37.376Z,17.50
2018-05-08T15:20:07.589Z,17.50
2018-05-08T15:22:37.187Z,17.60
2018-05-08T15:25:06.936Z,17.80
2018-05-08T15:27:37.175Z,18.00
2018-05-08T15:30:06.450Z,18.40
2018-05-08T15:32:37.008Z,18.60
2018-05-08T15:35:06.529Z,18.60
2018-05-08T15:37:37.945Z,18.60
2018-05-08T15:40:07.432Z,18.80
2018-05-08T15:42:36.828Z,19.10
2018-05-08T15:45:06.345Z,19.20
2018-05-08T15:47:35.748Z,19.50
2018-05-08T15:50:05.516Z,19.70
2018-05-08T15:52:35.936Z,20.20
2018-05-08T15:55:05.543Z,20.20
2018-05-08T15:57:36.712Z,20.30
2018-05-08T16:00:06.460Z,20.60
2018-05-08T16:02:36.173Z,20.70
2018-05-08T16:05:06.095Z,20.70
2018-05-08T16:07:35.647Z,21.00
2018-05-08T16:10:05.072Z,21.10
2018-05-08T16:12:34.401Z,21.10
2018-05-08T16:15:04.196Z,21.20
2018-05-08T16:17:33.922Z,21.00
2018-05-08T16:20:03.369Z,21.00
2018-05-08T16:22:32.677Z,21.00
2018-05-08T16:25:03.285Z,21.30
2018-05-08T16:27:33.140Z,21.20
2018-05-08T16:30:02.581Z,21.60
2018-05-08T16:32:32.078Z,21.80
2018-05-08T16:35:03.345Z,22.00
2018-05-08T16:37:33.125Z,22.10
2018-05-08T16:40:02.873Z,22.20
2018-05-08T16:42:32.431Z,22.40
2018-05-08T16:45:01.844Z,22.60
2018-05-08T16:47:31.133Z,23.80
2018-05-08T16:50:00.675Z,24.20
2018-05-08T16:52:29.861Z,23.90
2018-05-08T16:54:59.544Z,23.90
2018-05-08T16:57:29.057Z,23.80
2018-05-08T16:59:58.796Z,24.00
2018-05-08T17:02:29.864Z,24.10
2018-05-08T17:05:00.921Z,24.40
2018-05-08T17:07:30.359Z,24.60
2018-05-08T17:09:59.876Z,25.30
2018-05-08T17:12:29.408Z,27.30
2018-05-08T17:14:58.696Z,28.00
2018-05-08T17:17:28.093Z,30.00
2018-05-08T17:19:57.835Z,32.00
2018-05-08T17:22:29.848Z,35.40
2018-05-08T17:24:59.556Z,35.30
2018-05-08T17:27:28.924Z,37.40
2018-05-08T17:29:58.871Z,40.30
2018-05-08T17:32:28.457Z,42.50
2018-05-08T17:34:58.112Z,43.40
2018-05-08T17:37:27.985Z,45.60
2018-05-08T17:39:57.619Z,46.40
2018-05-08T17:42:27.156Z,47.30
2018-05-08T17:44:56.445Z,47.90
2018-05-08T17:47:26.496Z,47.60
2018-05-08T17:49:56.330Z,47.70
2018-05-08T17:52:25.628Z,48.60
2018-05-08T17:54:55.123Z,48.60
2018-05-08T17:57:24.502Z,49.20
2018-05-08T17:59:54.139Z,49.20
2018-05-08T18:02:23.458Z,49.40
2018-05-08T18:04:52.802Z,50.30
2018-05-08T18:07:22.266Z,50.60
2018-05-08T18:09:54.280Z,50.90
2018-05-08T18:12:24.583Z,51.20
2018-05-08T18:14:54.346Z,51.20
2018-05-08T18:17:23.869Z,51.00
2018-05-08T18:19:54.725Z,50.20
2018-05-08T18:22:24.278Z,50.20
2018-05-08T18:24:53.917Z,51.20
2018-05-08T18:27:23.832Z,51.60
2018-05-08T18:29:55.604Z,50.40
2018-05-08T18:32:26.004Z,46.50
2018-05-08T18:34:56.458Z,42.20
2018-05-08T18:37:26.381Z,40.20
2018-05-08T18:39:56.777Z,42.20
2018-05-08T18:42:26.172Z,42.20
2018-05-08T18:44:55.688Z,44.70
2018-05-08T18:47:26.292Z,46.90
2018-05-08T18:49:55.739Z,48.50
2018-05-08T18:52:25.124Z,49.20
2018-05-08T18:54:54.476Z,49.30
2018-05-08T18:57:25.011Z,48.50
2018-05-08T18:59:55.145Z,46.20
2018-05-08T19:02:24.893Z,42.80
2018-05-08T19:04:54.629Z,39.30
2018-05-08T19:07:24.133Z,37.00
2018-05-08T19:09:53.592Z,35.60
2018-05-08T19:12:22.923Z,34.70
2018-05-08T19:14:57.942Z,33.90
2018-05-08T19:17:27.128Z,33.50
2018-05-08T19:20:03.919Z,33.30
2018-05-08T19:22:33.406Z,33.20
2018-05-08T19:25:02.512Z,33.00
2018-05-08T19:27:32.055Z,33.10
2018-05-08T19:30:07.812Z,33.10
2018-05-08T19:32:37.147Z,33.20
2018-05-08T19:35:12.090Z,32.80
2018-05-08T19:37:47.306Z,32.30
2018-05-08T19:40:16.848Z,32.10
2018-05-08T19:42:46.077Z,31.90
2018-05-08T19:45:15.277Z,31.70
2018-05-08T19:47:44.756Z,31.50
2018-05-08T19:50:15.532Z,31.60
2018-05-08T19:52:45.168Z,31.30
2018-05-08T19:55:14.785Z,31.00
2018-05-08T19:57:44.094Z,30.70
2018-05-08T20:00:13.632Z,30.60
2018-05-08T20:02:43.351Z,30.50
2018-05-08T20:05:14.881Z,30.60
2018-05-08T20:07:44.355Z,30.60
2018-05-08T20:10:13.896Z,30.70
2018-05-08T20:12:43.307Z,30.30
2018-05-08T20:15:13.190Z,30.00
2018-05-08T20:17:42.705Z,29.50
2018-05-08T20:20:13.349Z,29.30
2018-05-08T20:22:42.879Z,28.80
2018-05-08T20:25:12.364Z,28.60
2018-05-08T20:27:43.551Z,28.30
2018-05-08T20:30:13.813Z,27.70
2018-05-08T20:32:43.045Z,27.60
2018-05-08T20:35:12.362Z,27.30
2018-05-08T20:37:42.345Z,27.20
2018-05-08T20:40:11.586Z,27.10
2018-05-08T20:42:43.599Z,26.60
2018-05-08T20:45:13.026Z,26.60
2018-05-08T20:47:42.172Z,26.50
2018-05-08T20:50:11.665Z,26.60
2018-05-08T20:52:41.471Z,26.70
2018-05-08T20:55:12.304Z,26.50
2018-05-08T20:57:42.880Z,26.40
2018-05-08T21:00:12.238Z,26.40
2018-05-08T21:02:44.067Z,26.40
2018-05-08T21:05:13.557Z,26.50
2018-05-08T21:07:43.082Z,26.50
2018-05-08T21:10:13.430Z,26.50
2018-05-08T21:12:42.759Z,26.60
2018-05-08T21:15:12.256Z,26.70
2018-05-08T21:17:41.982Z,26.70
2018-05-08T21:20:13.146Z,26.80
2018-05-08T21:22:43.437Z,26.80
2018-05-08T21:25:13.304Z,26.70
2018-05-08T21:27:49.353Z,26.90
2018-05-08T21:30:25.586Z,26.90
2018-05-08T21:32:55.096Z,26.70
2018-05-08T21:35:24.605Z,26.60
2018-05-08T21:37:54.736Z,26.40
2018-05-08T21:40:24.072Z,26.30
2018-05-08T21:42:53.500Z,26.20
2018-05-08T21:45:23.088Z,26.30
2018-05-08T21:47:52.231Z,26.40
2018-05-08T21:50:21.764Z,26.50
2018-05-08T21:52:52.000Z,26.70
2018-05-08T21:55:21.488Z,26.90
2018-05-08T21:57:51.077Z,27.10
2018-05-08T22:00:21.010Z,27.30
2018-05-08T22:02:50.576Z,27.40
2018-05-08T22:05:19.903Z,27.50
2018-05-08T22:07:49.389Z,27.30
2018-05-08T22:10:18.904Z,27.20
2018-05-08T22:12:48.832Z,27.00
2018-05-08T22:15:19.600Z,26.80
2018-05-08T22:17:49.140Z,26.80
2018-05-08T22:20:19.170Z,26.80
2018-05-08T22:22:48.717Z,26.90
2018-05-08T22:25:18.296Z,27.20
2018-05-08T22:27:49.392Z,27.40
2018-05-08T22:30:18.771Z,27.40
2018-05-08T22:32:48.385Z,27.20
2018-05-08T22:35:17.880Z,27.10
2018-05-08T22:37:48.031Z,26.90
2018-05-08T22:40:19.114Z,26.70
2018-05-08T22:42:48.400Z,26.60
2018-05-08T22:45:18.018Z,26.60
2018-05-08T22:47:47.829Z,26.60
2018-05-08T22:50:18.752Z,26.60
2018-05-08T22:52:48.074Z,26.60
2018-05-08T22:55:17.463Z,26.60
2018-05-08T22:57:46.864Z,26.50
2018-05-08T23:00:17.752Z,26.40
2018-05-08T23:02:47.758Z,26.40
2018-05-08T23:05:17.272Z,26.30
2018-05-08T23:07:46.846Z,26.20
2018-05-08T23:10:16.170Z,26.20
2018-05-08T23:12:45.901Z,26.00
2018-05-08T23:15:16.369Z,25.70
2018-05-08T23:17:47.737Z,25.70
2018-05-08T23:20:17.304Z,25.50
2018-05-08T23:22:46.934Z,25.40
2018-05-08T23:25:16.332Z,25.30
2018-05-08T23:27:47.247Z,25.10
2018-05-08T23:30:18.579Z,25.10
2018-05-08T23:32:48.201Z,25.10
2018-05-08T23:35:18.027Z,25.00
2018-05-08T23:37:47.656Z,24.90
2018-05-08T23:40:17.272Z,24.80
2018-05-08T23:42:46.982Z,24.60
2018-05-08T23:45:17.303Z,24.50
2018-05-08T23:47:46.754Z,24.40
2018-05-08T23:50:16.609Z,24.30
2018-05-08T23:52:46.329Z,24.20
2018-05-08T23:55:15.847Z,24.20
2018-05-08T23:57:46.112Z,24.20
